sensor_id;sensor_type;location;lat;lon;timestamp;P1;durP1;ratioP1;P2;durP2;ratioP2
45318;SDS011;31057;48.498;32.260;2023-07-09T01:44:28;9.15;;;6.82;;
45318;SDS011;31057;48.498;32.260;2023-07-09T01:46:30;13.45;;;6.60;;
45318;SDS011;31057;48.498;32.260;2023-07-09T01:50:42;10.25;;;6.10;;
45318;SDS011;31057;48.498;32.260;2023-07-09T01:52:45;9.25;;;5.88;;
45318;SDS011;31057;48.498;32.260;2023-07-09T01:54:47;10.52;;;5.80;;
45318;SDS011;31057;48.498;32.260;2023-07-09T01:56:50;12.75;;;7.05;;
45318;SDS011;31057;48.498;32.260;2023-07-09T01:58:52;9.27;;;6.05;;
45318;SDS011;31057;48.498;32.260;2023-07-09T02:00:58;7.93;;;5.97;;
45318;SDS011;31057;48.498;32.260;2023-07-09T02:03:00;9.30;;;6.53;;
45318;SDS011;31057;48.498;32.260;2023-07-09T02:05:04;6.82;;;5.35;;
45318;SDS011;31057;48.498;32.260;2023-07-09T02:07:06;9.07;;;5.53;;
45318;SDS011;31057;48.498;32.260;2023-07-09T02:09:08;8.52;;;6.57;;
45318;SDS011;31057;48.498;32.260;2023-07-09T02:11:10;8.13;;;5.72;;
45318;SDS011;31057;48.498;32.260;2023-07-09T02:13:12;9.25;;;5.70;;
45318;SDS011;31057;48.498;32.260;2023-07-09T02:15:14;11.80;;;6.38;;
45318;SDS011;31057;48.498;32.260;2023-07-09T02:17:17;11.27;;;5.97;;
45318;SDS011;31057;48.498;32.260;2023-07-09T02:19:19;8.50;;;5.30;;
45318;SDS011;31057;48.498;32.260;2023-07-09T02:21:21;12.02;;;5.47;;
45318;SDS011;31057;48.498;32.260;2023-07-09T02:23:27;7.60;;;5.15;;
45318;SDS011;31057;48.498;32.260;2023-07-09T02:25:29;6.85;;;5.47;;
45318;SDS011;31057;48.498;32.260;2023-07-09T02:27:31;5.85;;;5.20;;
45318;SDS011;31057;48.498;32.260;2023-07-09T02:29:33;6.25;;;5.35;;
45318;SDS011;31057;48.498;32.260;2023-07-09T02:33:37;8.05;;;5.38;;
45318;SDS011;31057;48.498;32.260;2023-07-09T02:35:39;8.90;;;5.88;;
45318;SDS011;31057;48.498;32.260;2023-07-09T02:37:41;6.95;;;5.07;;
45318;SDS011;31057;48.498;32.260;2023-07-09T02:39:43;9.15;;;6.10;;
45318;SDS011;31057;48.498;32.260;2023-07-09T02:43:47;7.55;;;5.07;;
45318;SDS011;31057;48.498;32.260;2023-07-09T02:45:49;10.80;;;5.93;;
45318;SDS011;31057;48.498;32.260;2023-07-09T02:47:50;7.32;;;5.18;;
45318;SDS011;31057;48.498;32.260;2023-07-09T02:49:53;10.50;;;5.38;;
45318;SDS011;31057;48.498;32.260;2023-07-09T02:51:55;6.70;;;5.82;;
45318;SDS011;31057;48.498;32.260;2023-07-09T02:53:57;9.32;;;5.80;;
45318;SDS011;31057;48.498;32.260;2023-07-09T02:56:01;10.43;;;6.38;;
45318;SDS011;31057;48.498;32.260;2023-07-09T02:58:03;8.15;;;5.75;;
45318;SDS011;31057;48.498;32.260;2023-07-09T03:00:05;8.55;;;5.80;;
45318;SDS011;31057;48.498;32.260;2023-07-09T03:02:08;10.00;;;5.85;;
45318;SDS011;31057;48.498;32.260;2023-07-09T03:04:11;6.50;;;5.85;;
45318;SDS011;31057;48.498;32.260;2023-07-09T03:08:15;8.20;;;6.13;;
45318;SDS011;31057;48.498;32.260;2023-07-09T03:10:17;12.88;;;5.95;;
45318;SDS011;31057;48.498;32.260;2023-07-09T03:12:19;11.30;;;5.72;;
45318;SDS011;31057;48.498;32.260;2023-07-09T03:14:21;12.75;;;5.90;;
45318;SDS011;31057;48.498;32.260;2023-07-09T03:16:25;8.05;;;5.10;;
45318;SDS011;31057;48.498;32.260;2023-07-09T03:18:28;6.05;;;4.63;;
45318;SDS011;31057;48.498;32.260;2023-07-09T03:20:30;11.90;;;6.07;;
45318;SDS011;31057;48.498;32.260;2023-07-09T03:22:33;6.20;;;4.85;;
45318;SDS011;31057;48.498;32.260;2023-07-09T03:26:36;11.75;;;6.00;;
45318;SDS011;31057;48.498;32.260;2023-07-09T03:28:38;13.07;;;5.72;;
45318;SDS011;31057;48.498;32.260;2023-07-09T03:32:49;7.82;;;5.38;;
45318;SDS011;31057;48.498;32.260;2023-07-09T03:36:54;8.82;;;5.90;;
45318;SDS011;31057;48.498;32.260;2023-07-09T03:38:56;9.55;;;5.60;;
45318;SDS011;31057;48.498;32.260;2023-07-09T03:40:58;8.30;;;5.93;;
45318;SDS011;31057;48.498;32.260;2023-07-09T03:43:00;9.27;;;6.05;;
45318;SDS011;31057;48.498;32.260;2023-07-09T03:45:02;10.60;;;5.30;;
45318;SDS011;31057;48.498;32.260;2023-07-09T03:49:06;6.78;;;5.28;;
45318;SDS011;31057;48.498;32.260;2023-07-09T03:51:08;7.80;;;5.25;;
45318;SDS011;31057;48.498;32.260;2023-07-09T03:53:10;12.43;;;5.47;;
45318;SDS011;31057;48.498;32.260;2023-07-09T03:55:13;7.38;;;4.82;;
45318;SDS011;31057;48.498;32.260;2023-07-09T03:57:15;7.88;;;5.80;;
45318;SDS011;31057;48.498;32.260;2023-07-09T03:59:17;8.40;;;5.13;;
45318;SDS011;31057;48.498;32.260;2023-07-09T04:03:22;8.63;;;5.05;;
45318;SDS011;31057;48.498;32.260;2023-07-09T04:05:24;10.95;;;5.35;;
45318;SDS011;31057;48.498;32.260;2023-07-09T04:07:29;10.75;;;5.70;;
45318;SDS011;31057;48.498;32.260;2023-07-09T04:09:31;7.60;;;4.95;;
45318;SDS011;31057;48.498;32.260;2023-07-09T04:11:33;10.25;;;5.75;;
45318;SDS011;31057;48.498;32.260;2023-07-09T04:13:35;7.88;;;5.32;;
45318;SDS011;31057;48.498;32.260;2023-07-09T04:17:39;5.80;;;5.18;;
45318;SDS011;31057;48.498;32.260;2023-07-09T04:19:42;11.68;;;5.50;;
45318;SDS011;31057;48.498;32.260;2023-07-09T04:21:44;8.98;;;5.90;;
45318;SDS011;31057;48.498;32.260;2023-07-09T04:23:46;6.95;;;5.32;;
45318;SDS011;31057;48.498;32.260;2023-07-09T04:25:50;6.88;;;5.10;;
45318;SDS011;31057;48.498;32.260;2023-07-09T04:27:52;8.38;;;5.35;;
45318;SDS011;31057;48.498;32.260;2023-07-09T04:29:54;8.95;;;5.32;;
45318;SDS011;31057;48.498;32.260;2023-07-09T04:31:56;9.13;;;5.22;;
45318;SDS011;31057;48.498;32.260;2023-07-09T04:36:00;12.05;;;5.70;;
45318;SDS011;31057;48.498;32.260;2023-07-09T04:38:02;6.40;;;5.32;;
45318;SDS011;31057;48.498;32.260;2023-07-09T04:40:05;9.88;;;5.60;;
45318;SDS011;31057;48.498;32.260;2023-07-09T04:42:11;8.57;;;6.20;;
45318;SDS011;31057;48.498;32.260;2023-07-09T04:44:14;7.75;;;5.50;;
45318;SDS011;31057;48.498;32.260;2023-07-09T04:48:18;11.48;;;5.45;;
45318;SDS011;31057;48.498;32.260;2023-07-09T04:50:20;12.60;;;6.18;;
45318;SDS011;31057;48.498;32.260;2023-07-09T04:52:23;8.05;;;5.68;;
45318;SDS011;31057;48.498;32.260;2023-07-09T04:54:25;10.50;;;5.90;;
45318;SDS011;31057;48.498;32.260;2023-07-09T04:56:28;9.43;;;5.50;;
45318;SDS011;31057;48.498;32.260;2023-07-09T04:58:31;6.47;;;5.85;;
45318;SDS011;31057;48.498;32.260;2023-07-09T05:00:33;9.13;;;6.18;;
45318;SDS011;31057;48.498;32.260;2023-07-09T05:04:37;7.15;;;5.82;;
45318;SDS011;31057;48.498;32.260;2023-07-09T05:08:40;11.38;;;5.93;;
45318;SDS011;31057;48.498;32.260;2023-07-09T05:10:46;8.15;;;5.50;;
45318;SDS011;31057;48.498;32.260;2023-07-09T05:12:52;12.25;;;6.65;;
45318;SDS011;31057;48.498;32.260;2023-07-09T05:14:56;11.02;;;5.57;;
45318;SDS011;31057;48.498;32.260;2023-07-09T05:19:00;11.73;;;5.78;;
45318;SDS011;31057;48.498;32.260;2023-07-09T05:23:04;10.40;;;6.07;;
45318;SDS011;31057;48.498;32.260;2023-07-09T05:25:05;8.15;;;6.28;;
45318;SDS011;31057;48.498;32.260;2023-07-09T05:27:08;12.32;;;6.07;;
45318;SDS011;31057;48.498;32.260;2023-07-09T05:29:10;6.85;;;4.43;;
45318;SDS011;31057;48.498;32.260;2023-07-09T05:33:14;8.52;;;5.63;;
45318;SDS011;31057;48.498;32.260;2023-07-09T05:35:15;8.75;;;6.93;;
45318;SDS011;31057;48.498;32.260;2023-07-09T05:37:17;10.88;;;5.28;;
45318;SDS011;31057;48.498;32.260;2023-07-09T05:39:19;7.90;;;5.40;;
45318;SDS011;31057;48.498;32.260;2023-07-09T05:43:23;7.32;;;4.38;;
45318;SDS011;31057;48.498;32.260;2023-07-09T05:45:25;6.63;;;4.88;;
45318;SDS011;31057;48.498;32.260;2023-07-09T05:47:27;13.93;;;5.82;;
45318;SDS011;31057;48.498;32.260;2023-07-09T05:51:31;9.18;;;4.50;;
45318;SDS011;31057;48.498;32.260;2023-07-09T05:55:34;8.55;;;5.13;;
45318;SDS011;31057;48.498;32.260;2023-07-09T05:57:37;8.48;;;5.18;;
45318;SDS011;31057;48.498;32.260;2023-07-09T05:59:39;8.63;;;5.38;;
45318;SDS011;31057;48.498;32.260;2023-07-09T06:03:43;7.97;;;6.20;;
45318;SDS011;31057;48.498;32.260;2023-07-09T06:05:47;7.32;;;5.10;;
45318;SDS011;31057;48.498;32.260;2023-07-09T06:07:53;8.13;;;5.18;;
45318;SDS011;31057;48.498;32.260;2023-07-09T06:09:56;6.28;;;4.95;;
45318;SDS011;31057;48.498;32.260;2023-07-09T06:11:58;6.78;;;4.93;;
45318;SDS011;31057;48.498;32.260;2023-07-09T06:14:02;8.80;;;4.97;;
45318;SDS011;31057;48.498;32.260;2023-07-09T06:18:06;10.60;;;5.43;;
45318;SDS011;31057;48.498;32.260;2023-07-09T06:22:10;9.07;;;5.40;;
45318;SDS011;31057;48.498;32.260;2023-07-09T06:24:12;10.82;;;5.30;;
45318;SDS011;31057;48.498;32.260;2023-07-09T06:28:16;9.52;;;5.18;;
45318;SDS011;31057;48.498;32.260;2023-07-09T06:30:19;5.80;;;5.20;;
45318;SDS011;31057;48.498;32.260;2023-07-09T06:32:21;6.82;;;5.07;;
45318;SDS011;31057;48.498;32.260;2023-07-09T06:36:25;8.48;;;5.10;;
45318;SDS011;31057;48.498;32.260;2023-07-09T06:38:27;9.35;;;4.65;;
45318;SDS011;31057;48.498;32.260;2023-07-09T06:40:30;6.35;;;5.05;;
45318;SDS011;31057;48.498;32.260;2023-07-09T06:44:34;9.98;;;5.25;;
45318;SDS011;31057;48.498;32.260;2023-07-09T06:48:38;7.90;;;5.15;;
45318;SDS011;31057;48.498;32.260;2023-07-09T06:50:41;8.45;;;5.28;;
45318;SDS011;31057;48.498;32.260;2023-07-09T06:52:43;10.48;;;5.15;;
45318;SDS011;31057;48.498;32.260;2023-07-09T06:54:45;8.23;;;5.10;;
45318;SDS011;31057;48.498;32.260;2023-07-09T06:56:47;8.23;;;4.90;;
45318;SDS011;31057;48.498;32.260;2023-07-09T07:00:51;9.57;;;5.38;;
45318;SDS011;31057;48.498;32.260;2023-07-09T07:02:53;8.00;;;4.18;;
45318;SDS011;31057;48.498;32.260;2023-07-09T07:04:55;7.80;;;4.68;;
45318;SDS011;31057;48.498;32.260;2023-07-09T07:06:57;7.07;;;4.50;;
45318;SDS011;31057;48.498;32.260;2023-07-09T07:08:59;6.72;;;4.60;;
45318;SDS011;31057;48.498;32.260;2023-07-09T07:11:02;6.75;;;4.35;;
45318;SDS011;31057;48.498;32.260;2023-07-09T07:13:06;6.70;;;4.43;;
45318;SDS011;31057;48.498;32.260;2023-07-09T07:15:08;7.47;;;4.35;;
45318;SDS011;31057;48.498;32.260;2023-07-09T07:17:11;9.65;;;5.35;;
45318;SDS011;31057;48.498;32.260;2023-07-09T07:19:13;5.43;;;4.32;;
45318;SDS011;31057;48.498;32.260;2023-07-09T07:23:17;5.20;;;3.80;;
45318;SDS011;31057;48.498;32.260;2023-07-09T07:25:19;9.45;;;4.30;;
45318;SDS011;31057;48.498;32.260;2023-07-09T07:27:21;7.28;;;4.20;;
45318;SDS011;31057;48.498;32.260;2023-07-09T07:29:23;7.32;;;4.47;;
45318;SDS011;31057;48.498;32.260;2023-07-09T07:31:25;8.18;;;4.72;;
45318;SDS011;31057;48.498;32.260;2023-07-09T07:35:29;10.13;;;4.63;;
45318;SDS011;31057;48.498;32.260;2023-07-09T07:37:31;9.82;;;4.53;;
45318;SDS011;31057;48.498;32.260;2023-07-09T07:39:33;5.97;;;4.43;;
45318;SDS011;31057;48.498;32.260;2023-07-09T07:41:34;7.60;;;4.78;;
45318;SDS011;31057;48.498;32.260;2023-07-09T07:43:36;5.93;;;4.40;;
45318;SDS011;31057;48.498;32.260;2023-07-09T07:47:43;5.82;;;3.95;;
45318;SDS011;31057;48.498;32.260;2023-07-09T07:49:45;7.60;;;4.43;;
45318;SDS011;31057;48.498;32.260;2023-07-09T07:51:49;7.40;;;3.95;;
45318;SDS011;31057;48.498;32.260;2023-07-09T07:55:53;6.88;;;4.32;;
45318;SDS011;31057;48.498;32.260;2023-07-09T07:57:55;9.13;;;4.55;;
45318;SDS011;31057;48.498;32.260;2023-07-09T07:59:58;8.77;;;4.40;;
45318;SDS011;31057;48.498;32.260;2023-07-09T08:02:04;8.13;;;4.82;;
45318;SDS011;31057;48.498;32.260;2023-07-09T08:04:08;5.75;;;4.10;;
45318;SDS011;31057;48.498;32.260;2023-07-09T08:08:13;7.85;;;4.50;;
45318;SDS011;31057;48.498;32.260;2023-07-09T08:10:15;6.80;;;4.35;;
45318;SDS011;31057;48.498;32.260;2023-07-09T08:12:17;7.63;;;4.82;;
45318;SDS011;31057;48.498;32.260;2023-07-09T08:16:21;7.22;;;4.35;;
45318;SDS011;31057;48.498;32.260;2023-07-09T08:20:25;5.50;;;4.25;;
45318;SDS011;31057;48.498;32.260;2023-07-09T08:24:29;9.07;;;4.07;;
45318;SDS011;31057;48.498;32.260;2023-07-09T08:28:34;11.45;;;5.30;;
45318;SDS011;31057;48.498;32.260;2023-07-09T08:30:36;7.47;;;3.90;;
45318;SDS011;31057;48.498;32.260;2023-07-09T08:34:40;8.40;;;4.35;;
45318;SDS011;31057;48.498;32.260;2023-07-09T08:37:03;5.50;;;4.03;;
45318;SDS011;31057;48.498;32.260;2023-07-09T08:39:05;6.15;;;4.45;;
45318;SDS011;31057;48.498;32.260;2023-07-09T08:41:08;6.85;;;4.45;;
45318;SDS011;31057;48.498;32.260;2023-07-09T08:48:03;5.97;;;4.00;;
45318;SDS011;31057;48.498;32.260;2023-07-09T08:50:22;4.82;;;4.07;;
45318;SDS011;31057;48.498;32.260;2023-07-09T08:52:37;5.90;;;4.00;;
45318;SDS011;31057;48.498;32.260;2023-07-09T08:54:44;9.85;;;5.18;;
45318;SDS011;31057;48.498;32.260;2023-07-09T08:56:48;4.88;;;3.72;;
45318;SDS011;31057;48.498;32.260;2023-07-09T09:00:57;4.75;;;4.15;;
45318;SDS011;31057;48.498;32.260;2023-07-09T09:03:10;5.38;;;3.67;;
45318;SDS011;31057;48.498;32.260;2023-07-09T09:05:21;5.63;;;3.97;;
45318;SDS011;31057;48.498;32.260;2023-07-09T09:09:34;8.30;;;3.70;;
45318;SDS011;31057;48.498;32.260;2023-07-09T09:11:44;7.80;;;4.07;;
45318;SDS011;31057;48.498;32.260;2023-07-09T09:14:33;5.45;;;4.05;;
45318;SDS011;31057;48.498;32.260;2023-07-09T09:16:39;7.22;;;4.40;;
45318;SDS011;31057;48.498;32.260;2023-07-09T09:18:45;4.85;;;3.78;;
45318;SDS011;31057;48.498;32.260;2023-07-09T09:20:55;8.43;;;3.85;;
45318;SDS011;31057;48.498;32.260;2023-07-09T09:23:12;10.73;;;4.10;;
45318;SDS011;31057;48.498;32.260;2023-07-09T09:25:28;7.18;;;3.55;;
45318;SDS011;31057;48.498;32.260;2023-07-09T09:27:32;6.30;;;3.65;;
45318;SDS011;31057;48.498;32.260;2023-07-09T09:31:36;5.35;;;3.40;;
45318;SDS011;31057;48.498;32.260;2023-07-09T09:33:42;7.38;;;4.22;;
45318;SDS011;31057;48.498;32.260;2023-07-09T09:35:48;8.82;;;3.58;;
45318;SDS011;31057;48.498;32.260;2023-07-09T09:37:52;7.05;;;3.30;;
45318;SDS011;31057;48.498;32.260;2023-07-09T09:39:56;4.57;;;3.70;;
45318;SDS011;31057;48.498;32.260;2023-07-09T09:42:18;8.95;;;3.60;;
45318;SDS011;31057;48.498;32.260;2023-07-09T09:46:26;6.03;;;3.55;;
45318;SDS011;31057;48.498;32.260;2023-07-09T09:48:29;8.85;;;3.83;;
45318;SDS011;31057;48.498;32.260;2023-07-09T09:50:32;6.45;;;3.90;;
45318;SDS011;31057;48.498;32.260;2023-07-09T09:54:39;4.20;;;2.80;;
45318;SDS011;31057;48.498;32.260;2023-07-09T09:56:43;6.18;;;3.10;;
45318;SDS011;31057;48.498;32.260;2023-07-09T09:58:45;5.85;;;2.90;;
45318;SDS011;31057;48.498;32.260;2023-07-09T10:00:51;12.32;;;3.75;;
45318;SDS011;31057;48.498;32.260;2023-07-09T10:02:58;7.15;;;3.65;;
45318;SDS011;31057;48.498;32.260;2023-07-09T10:05:01;3.53;;;2.95;;
45318;SDS011;31057;48.498;32.260;2023-07-09T10:07:07;4.78;;;3.20;;
45318;SDS011;31057;48.498;32.260;2023-07-09T10:13:44;5.00;;;3.03;;
45318;SDS011;31057;48.498;32.260;2023-07-09T10:15:48;6.93;;;3.25;;
45318;SDS011;31057;48.498;32.260;2023-07-09T10:25:20;11.20;;;2.42;;
45318;SDS011;31057;48.498;32.260;2023-07-09T10:33:13;7.13;;;2.35;;
45318;SDS011;31057;48.498;32.260;2023-07-09T10:35:35;4.88;;;2.78;;
45318;SDS011;31057;48.498;32.260;2023-07-09T10:40:08;3.85;;;2.67;;
45318;SDS011;31057;48.498;32.260;2023-07-09T10:42:18;5.70;;;2.78;;
45318;SDS011;31057;48.498;32.260;2023-07-09T10:44:35;8.85;;;3.10;;
45318;SDS011;31057;48.498;32.260;2023-07-09T10:46:40;8.20;;;2.78;;
45318;SDS011;31057;48.498;32.260;2023-07-09T10:48:47;3.95;;;2.35;;
45318;SDS011;31057;48.498;32.260;2023-07-09T10:50:52;9.02;;;3.00;;
45318;SDS011;31057;48.498;32.260;2023-07-09T10:52:55;3.55;;;2.58;;
45318;SDS011;31057;48.498;32.260;2023-07-09T10:55:04;3.20;;;2.47;;
45318;SDS011;31057;48.498;32.260;2023-07-09T10:57:22;4.63;;;2.88;;
45318;SDS011;31057;48.498;32.260;2023-07-09T11:01:35;5.25;;;2.53;;
45318;SDS011;31057;48.498;32.260;2023-07-09T11:03:50;5.20;;;2.97;;
45318;SDS011;31057;48.498;32.260;2023-07-09T11:05:59;2.97;;;2.63;;
45318;SDS011;31057;48.498;32.260;2023-07-09T11:10:41;4.25;;;2.92;;
45318;SDS011;31057;48.498;32.260;2023-07-09T11:13:02;5.25;;;3.08;;
45318;SDS011;31057;48.498;32.260;2023-07-09T11:15:06;6.85;;;3.30;;
45318;SDS011;31057;48.498;32.260;2023-07-09T11:17:14;5.47;;;3.50;;
45318;SDS011;31057;48.498;32.260;2023-07-09T11:19:19;4.97;;;3.20;;
45318;SDS011;31057;48.498;32.260;2023-07-09T11:21:22;3.85;;;2.63;;
45318;SDS011;31057;48.498;32.260;2023-07-09T11:25:28;3.92;;;2.78;;
45318;SDS011;31057;48.498;32.260;2023-07-09T11:27:30;4.22;;;3.08;;
45318;SDS011;31057;48.498;32.260;2023-07-09T11:29:32;4.45;;;3.53;;
45318;SDS011;31057;48.498;32.260;2023-07-09T11:31:36;5.50;;;3.58;;
45318;SDS011;31057;48.498;32.260;2023-07-09T11:33:47;3.75;;;2.88;;
45318;SDS011;31057;48.498;32.260;2023-07-09T11:35:52;4.05;;;2.92;;
45318;SDS011;31057;48.498;32.260;2023-07-09T11:38:07;3.05;;;2.70;;
45318;SDS011;31057;48.498;32.260;2023-07-09T11:40:16;7.55;;;3.00;;
45318;SDS011;31057;48.498;32.260;2023-07-09T11:42:28;5.07;;;3.10;;
45318;SDS011;31057;48.498;32.260;2023-07-09T11:44:32;5.95;;;3.85;;
45318;SDS011;31057;48.498;32.260;2023-07-09T11:46:35;4.35;;;2.92;;
45318;SDS011;31057;48.498;32.260;2023-07-09T11:48:44;5.32;;;2.95;;
45318;SDS011;31057;48.498;32.260;2023-07-09T11:50:48;3.70;;;3.25;;
45318;SDS011;31057;48.498;32.260;2023-07-09T11:52:55;4.82;;;2.83;;
45318;SDS011;31057;48.498;32.260;2023-07-09T11:55:00;5.15;;;2.55;;
45318;SDS011;31057;48.498;32.260;2023-07-09T11:57:10;8.65;;;4.25;;
45318;SDS011;31057;48.498;32.260;2023-07-09T11:59:15;6.50;;;3.28;;
45318;SDS011;31057;48.498;32.260;2023-07-09T12:01:18;6.15;;;3.17;;
45318;SDS011;31057;48.498;32.260;2023-07-09T12:05:28;3.30;;;2.60;;
45318;SDS011;31057;48.498;32.260;2023-07-09T12:07:31;4.30;;;2.38;;
45318;SDS011;31057;48.498;32.260;2023-07-09T12:09:37;3.15;;;2.70;;
45318;SDS011;31057;48.498;32.260;2023-07-09T12:11:50;3.65;;;3.03;;
45318;SDS011;31057;48.498;32.260;2023-07-09T12:13:52;6.35;;;2.90;;
45318;SDS011;31057;48.498;32.260;2023-07-09T12:15:55;7.72;;;2.80;;
45318;SDS011;31057;48.498;32.260;2023-07-09T12:20:00;6.13;;;2.88;;
45318;SDS011;31057;48.498;32.260;2023-07-09T12:24:42;6.03;;;3.20;;
45318;SDS011;31057;48.498;32.260;2023-07-09T12:26:47;5.45;;;2.85;;
45318;SDS011;31057;48.498;32.260;2023-07-09T12:28:51;4.88;;;3.63;;
45318;SDS011;31057;48.498;32.260;2023-07-09T12:30:58;5.18;;;3.63;;
45318;SDS011;31057;48.498;32.260;2023-07-09T12:35:11;6.93;;;3.20;;
45318;SDS011;31057;48.498;32.260;2023-07-09T12:37:15;5.97;;;3.08;;
45318;SDS011;31057;48.498;32.260;2023-07-09T12:39:20;5.95;;;3.70;;
45318;SDS011;31057;48.498;32.260;2023-07-09T12:41:40;5.18;;;4.15;;
45318;SDS011;31057;48.498;32.260;2023-07-09T12:43:43;5.57;;;4.13;;
45318;SDS011;31057;48.498;32.260;2023-07-09T12:45:45;4.85;;;3.78;;
45318;SDS011;31057;48.498;32.260;2023-07-09T12:47:47;9.73;;;3.83;;
45318;SDS011;31057;48.498;32.260;2023-07-09T12:49:51;5.60;;;3.17;;
45318;SDS011;31057;48.498;32.260;2023-07-09T12:52:03;5.47;;;3.53;;
45318;SDS011;31057;48.498;32.260;2023-07-09T12:54:14;4.18;;;3.20;;
45318;SDS011;31057;48.498;32.260;2023-07-09T12:56:20;6.75;;;3.45;;
45318;SDS011;31057;48.498;32.260;2023-07-09T12:58:23;4.32;;;3.05;;
45318;SDS011;31057;48.498;32.260;2023-07-09T13:00:29;4.72;;;3.42;;
45318;SDS011;31057;48.498;32.260;2023-07-09T13:02:37;5.95;;;3.53;;
45318;SDS011;31057;48.498;32.260;2023-07-09T13:04:40;3.30;;;2.78;;
45318;SDS011;31057;48.498;32.260;2023-07-09T13:06:42;4.45;;;2.78;;
45318;SDS011;31057;48.498;32.260;2023-07-09T13:08:46;4.43;;;2.83;;
45318;SDS011;31057;48.498;32.260;2023-07-09T13:12:53;5.70;;;3.33;;
45318;SDS011;31057;48.498;32.260;2023-07-09T13:14:57;4.05;;;3.40;;
45318;SDS011;31057;48.498;32.260;2023-07-09T13:17:04;5.75;;;3.10;;
45318;SDS011;31057;48.498;32.260;2023-07-09T13:19:08;4.55;;;2.58;;
45318;SDS011;31057;48.498;32.260;2023-07-09T13:21:13;5.38;;;3.05;;
45318;SDS011;31057;48.498;32.260;2023-07-09T13:23:19;5.85;;;3.05;;
45318;SDS011;31057;48.498;32.260;2023-07-09T13:25:24;6.85;;;2.63;;
45318;SDS011;31057;48.498;32.260;2023-07-09T13:27:45;2.92;;;2.45;;
45318;SDS011;31057;48.498;32.260;2023-07-09T13:31:49;6.22;;;3.03;;
45318;SDS011;31057;48.498;32.260;2023-07-09T13:33:56;2.80;;;2.47;;
45318;SDS011;31057;48.498;32.260;2023-07-09T13:35:59;5.07;;;2.78;;
45318;SDS011;31057;48.498;32.260;2023-07-09T13:38:01;5.60;;;3.00;;
45318;SDS011;31057;48.498;32.260;2023-07-09T13:40:06;3.28;;;2.38;;
45318;SDS011;31057;48.498;32.260;2023-07-09T13:42:10;3.58;;;2.20;;
45318;SDS011;31057;48.498;32.260;2023-07-09T13:44:18;5.28;;;2.67;;
45318;SDS011;31057;48.498;32.260;2023-07-09T13:46:30;7.60;;;2.35;;
45318;SDS011;31057;48.498;32.260;2023-07-09T13:50:35;5.75;;;2.50;;
45318;SDS011;31057;48.498;32.260;2023-07-09T13:52:37;8.30;;;2.78;;
45318;SDS011;31057;48.498;32.260;2023-07-09T13:54:39;4.63;;;2.78;;
45318;SDS011;31057;48.498;32.260;2023-07-09T13:56:41;4.15;;;1.92;;
45318;SDS011;31057;48.498;32.260;2023-07-09T13:58:43;5.22;;;2.63;;
45318;SDS011;31057;48.498;32.260;2023-07-09T14:02:47;4.50;;;2.58;;
45318;SDS011;31057;48.498;32.260;2023-07-09T14:04:50;2.47;;;2.00;;
45318;SDS011;31057;48.498;32.260;2023-07-09T14:06:53;4.60;;;2.75;;
45318;SDS011;31057;48.498;32.260;2023-07-09T14:08:55;4.53;;;2.10;;
45318;SDS011;31057;48.498;32.260;2023-07-09T14:10:57;3.08;;;2.00;;
45318;SDS011;31057;48.498;32.260;2023-07-09T14:13:00;7.22;;;1.95;;
45318;SDS011;31057;48.498;32.260;2023-07-09T14:15:04;4.05;;;1.88;;
45318;SDS011;31057;48.498;32.260;2023-07-09T14:17:14;2.75;;;1.98;;
45318;SDS011;31057;48.498;32.260;2023-07-09T14:21:26;6.03;;;2.25;;
45318;SDS011;31057;48.498;32.260;2023-07-09T14:23:28;12.60;;;2.25;;
45318;SDS011;31057;48.498;32.260;2023-07-09T14:25:31;2.35;;;2.05;;
45318;SDS011;31057;48.498;32.260;2023-07-09T14:29:35;4.95;;;2.13;;
45318;SDS011;31057;48.498;32.260;2023-07-09T14:33:38;2.65;;;1.90;;
45318;SDS011;31057;48.498;32.260;2023-07-09T14:35:40;4.13;;;1.98;;
45318;SDS011;31057;48.498;32.260;2023-07-09T14:37:44;3.33;;;2.13;;
45318;SDS011;31057;48.498;32.260;2023-07-09T14:39:47;2.60;;;2.00;;
45318;SDS011;31057;48.498;32.260;2023-07-09T14:41:49;2.55;;;2.35;;
45318;SDS011;31057;48.498;32.260;2023-07-09T14:43:51;4.13;;;1.80;;
45318;SDS011;31057;48.498;32.260;2023-07-09T14:45:58;5.93;;;1.75;;
45318;SDS011;31057;48.498;32.260;2023-07-09T14:50:02;4.85;;;2.30;;
45318;SDS011;31057;48.498;32.260;2023-07-09T14:52:04;4.32;;;2.15;;
45318;SDS011;31057;48.498;32.260;2023-07-09T14:54:17;3.95;;;2.00;;
45318;SDS011;31057;48.498;32.260;2023-07-09T14:56:24;3.30;;;2.03;;
45318;SDS011;31057;48.498;32.260;2023-07-09T14:58:27;3.83;;;2.13;;
45318;SDS011;31057;48.498;32.260;2023-07-09T15:00:29;5.40;;;2.60;;
45318;SDS011;31057;48.498;32.260;2023-07-09T15:04:38;4.10;;;2.40;;
45318;SDS011;31057;48.498;32.260;2023-07-09T15:06:40;3.22;;;2.00;;
45318;SDS011;31057;48.498;32.260;2023-07-09T15:08:42;3.13;;;2.00;;
45318;SDS011;31057;48.498;32.260;2023-07-09T15:12:47;2.50;;;2.00;;
45318;SDS011;31057;48.498;32.260;2023-07-09T15:14:50;4.22;;;2.20;;
45318;SDS011;31057;48.498;32.260;2023-07-09T15:16:52;3.20;;;1.65;;
45318;SDS011;31057;48.498;32.260;2023-07-09T15:18:58;3.38;;;1.85;;
45318;SDS011;31057;48.498;32.260;2023-07-09T15:23:04;3.10;;;1.88;;
45318;SDS011;31057;48.498;32.260;2023-07-09T15:25:13;4.40;;;2.10;;
45318;SDS011;31057;48.498;32.260;2023-07-09T15:27:17;3.40;;;1.95;;
45318;SDS011;31057;48.498;32.260;2023-07-09T15:33:23;3.45;;;2.30;;
45318;SDS011;31057;48.498;32.260;2023-07-09T15:35:26;3.22;;;2.00;;
45318;SDS011;31057;48.498;32.260;2023-07-09T15:37:33;4.32;;;2.30;;
45318;SDS011;31057;48.498;32.260;2023-07-09T15:39:35;2.67;;;2.42;;
45318;SDS011;31057;48.498;32.260;2023-07-09T15:43:41;5.55;;;2.25;;
45318;SDS011;31057;48.498;32.260;2023-07-09T15:45:45;4.75;;;2.15;;
45318;SDS011;31057;48.498;32.260;2023-07-09T15:47:50;4.75;;;1.77;;
45318;SDS011;31057;48.498;32.260;2023-07-09T15:49:53;3.17;;;2.30;;
45318;SDS011;31057;48.498;32.260;2023-07-09T15:51:55;4.47;;;2.20;;
45318;SDS011;31057;48.498;32.260;2023-07-09T15:53:58;4.47;;;2.08;;
45318;SDS011;31057;48.498;32.260;2023-07-09T15:58:04;5.15;;;2.22;;
45318;SDS011;31057;48.498;32.260;2023-07-09T16:02:15;5.85;;;2.30;;
45318;SDS011;31057;48.498;32.260;2023-07-09T16:06:19;5.68;;;2.40;;
45318;SDS011;31057;48.498;32.260;2023-07-09T16:10:23;5.30;;;2.42;;
45318;SDS011;31057;48.498;32.260;2023-07-09T16:12:26;5.20;;;2.20;;
45318;SDS011;31057;48.498;32.260;2023-07-09T16:14:32;2.47;;;2.13;;
45318;SDS011;31057;48.498;32.260;2023-07-09T16:16:35;4.68;;;2.20;;
45318;SDS011;31057;48.498;32.260;2023-07-09T16:20:38;6.13;;;2.38;;
45318;SDS011;31057;48.498;32.260;2023-07-09T16:22:41;2.88;;;2.13;;
45318;SDS011;31057;48.498;32.260;2023-07-09T16:24:44;5.78;;;2.38;;
45318;SDS011;31057;48.498;32.260;2023-07-09T16:30:51;6.97;;;2.38;;
45318;SDS011;31057;48.498;32.260;2023-07-09T16:32:56;5.55;;;2.30;;
45318;SDS011;31057;48.498;32.260;2023-07-09T16:34:58;4.57;;;2.58;;
45318;SDS011;31057;48.498;32.260;2023-07-09T16:37:00;3.50;;;2.60;;
45318;SDS011;31057;48.498;32.260;2023-07-09T16:39:04;10.38;;;3.35;;
45318;SDS011;31057;48.498;32.260;2023-07-09T16:41:39;6.18;;;2.88;;
45318;SDS011;31057;48.498;32.260;2023-07-09T16:43:41;3.45;;;2.78;;
45318;SDS011;31057;48.498;32.260;2023-07-09T16:45:43;5.22;;;2.83;;
45318;SDS011;31057;48.498;32.260;2023-07-09T16:47:46;3.75;;;2.85;;
45318;SDS011;31057;48.498;32.260;2023-07-09T16:49:48;5.43;;;4.45;;
45318;SDS011;31057;48.498;32.260;2023-07-09T16:53:52;5.22;;;4.07;;